NORTHEAST SUFFOLK  -  Rip Current Statement Rip Current Statement        NORTHERN NASSAU  -  Rip Current Statement Rip Current Statement        NORTHERN QUEENS  -  Rip Current Statement Rip Current Statement        NORTHWEST SUFFOLK  -  Rip Current Statement Rip Current Statement        SOUTHEAST SUFFOLK  -  Rip Current Statement Rip Current Statement        SOUTHERN NASSAU  -  Rip Current Statement Rip Current Statement        SOUTHERN QUEENS  -  Rip Current Statement Rip Current Statement        SOUTHWEST SUFFOLK  -  Rip Current Statement Rip Current Statement      

Active alerts

Northern Queens
  Details for Northern Queens Rip Current Statement
Southern Queens
  Details for Southern Queens Rip Current Statement
Northern Nassau
  Details for Northern Nassau Rip Current Statement
Southern Nassau
  Details for Southern Nassau Rip Current Statement
Northwest Suffolk
  Details for Northwest Suffolk Rip Current Statement
Southwest Suffolk
  Details for Southwest Suffolk Rip Current Statement
Northeast Suffolk
  Details for Northeast Suffolk Rip Current Statement
Southeast Suffolk
  Details for Southeast Suffolk Rip Current Statement


WXM80 ListenWXM80 Stop

You find our weather info also at:

UK Metoffice

WeatherCloud

Weather Underground

Northeastern Weather Network

AWEKAS

Citizen Weather Observer Program (CWOP)

HAMweather, WeatherForYou, PWS Weather


Weather Underground History page Text

Daily Summary for December 3, 2017 Units:  Both    English   Metric
« Previous Day
Next Day »
Daily Weekly Monthly Yearly Custom
  High: Low: Average:
Temperature: 48.9 °F /  9.4 °C 34.9 °F /  1.6 °C 41.6 °F /  5.3 °C
Dew Point: 42.2 °F /  5.7 °C 32.0 °F /  0 °C 37.5 °F /  3.1 °C
Humidity: 93 % 70 % 86 %
Wind Speed: 3.1 mph /  5 km/h - 0.3 mph /  0.5 km/h
Wind Gust: 5.0 mph /  8 km/h - -
Wind:- - East
Pressure: 30.31 in /  1026.3 hPa 30.06 in /  1017.8 hPa -
Precipitation: 0.00 in /  0 mm    
Historical Graphs
 
 
Tabular Data for December 3, 2017
Time Temperature Dew Point Pressure Wind Wind Speed Wind Gust Humidity Rainfall Rate (Hourly)
00:03 36.9 °F /  2.7 °C 33.7 °F /  0.9 °C 30.25 in /  1024.3 hPa Calm     88 % 0.00 in /  0 mm
00:08 36.9 °F /  2.7 °C 33.7 °F /  0.9 °C 30.25 in /  1024.3 hPa Calm     88 % 0.00 in /  0 mm
00:18 37.1 °F /  2.8 °C 33.9 °F /  1.1 °C 30.25 in /  1024.3 hPa Calm     88 % 0.00 in /  0 mm
00:33 37.2 °F /  2.9 °C 33.7 °F /  0.9 °C 30.25 in /  1024.3 hPa Calm     87 % 0.00 in /  0 mm
00:38 37.3 °F /  2.9 °C 33.8 °F /  1 °C 30.25 in /  1024.3 hPa South 0.1 mph /  0.2 km/h 1.2 mph /  1.9 km/h 87 % 0.00 in /  0 mm
00:48 37.4 °F /  3 °C 33.9 °F /  1.1 °C 30.22 in /  1023.2 hPa Calm     87 % 0.00 in /  0 mm
00:53 37.4 °F /  3 °C 33.9 °F /  1.1 °C 30.23 in /  1023.6 hPa Calm   1.2 mph /  1.9 km/h 87 % 0.00 in /  0 mm
00:58 37.4 °F /  3 °C 33.9 °F /  1.1 °C 30.23 in /  1023.6 hPa Calm     87 % 0.00 in /  0 mm
01:03 37.5 °F /  3.1 °C 34.0 °F /  1.1 °C 30.23 in /  1023.6 hPa Calm     87 % 0.00 in /  0 mm
01:08 37.5 °F /  3.1 °C 34.0 °F /  1.1 °C 30.23 in /  1023.6 hPa Calm     87 % 0.00 in /  0 mm
01:13 37.5 °F /  3.1 °C 34.0 °F /  1.1 °C 30.22 in /  1023.2 hPa Calm     87 % 0.00 in /  0 mm
01:19 37.5 °F /  3.1 °C 34.0 °F /  1.1 °C 30.22 in /  1023.2 hPa Calm     87 % 0.00 in /  0 mm
01:24 37.5 °F /  3.1 °C 34.0 °F /  1.1 °C 30.23 in /  1023.6 hPa Calm     87 % 0.00 in /  0 mm
01:29 37.5 °F /  3.1 °C 33.7 °F /  0.9 °C 30.23 in /  1023.6 hPa Calm     86 % 0.00 in /  0 mm
01:39 37.3 °F /  2.9 °C 33.5 °F /  0.8 °C 30.23 in /  1023.6 hPa Calm     86 % 0.00 in /  0 mm
01:45 37.3 °F /  2.9 °C 33.5 °F /  0.8 °C 30.23 in /  1023.6 hPa Calm     86 % 0.00 in /  0 mm
02:00 37.0 °F /  2.8 °C 33.2 °F /  0.7 °C 30.22 in /  1023.2 hPa Calm     86 % 0.00 in /  0 mm
02:05 37.0 °F /  2.8 °C 33.2 °F /  0.7 °C 30.22 in /  1023.2 hPa Calm     86 % 0.00 in /  0 mm
02:10 36.8 °F /  2.7 °C 33.0 °F /  0.6 °C 30.22 in /  1023.2 hPa Calm     86 % 0.00 in /  0 mm
02:20 36.7 °F /  2.6 °C 32.9 °F /  0.5 °C 30.22 in /  1023.2 hPa Calm     86 % 0.00 in /  0 mm
02:35 36.5 °F /  2.5 °C 32.7 °F /  0.4 °C 30.21 in /  1022.9 hPa Calm     86 % 0.00 in /  0 mm
02:40 36.4 °F /  2.4 °C 32.6 °F /  0.3 °C 30.21 in /  1022.9 hPa Calm     86 % 0.00 in /  0 mm
02:45 36.3 °F /  2.4 °C 32.5 °F /  0.3 °C 30.21 in /  1022.9 hPa Calm     86 % 0.00 in /  0 mm
02:50 36.2 °F /  2.3 °C 32.4 °F /  0.2 °C 30.21 in /  1022.9 hPa Calm   1.2 mph /  1.9 km/h 86 % 0.00 in /  0 mm
02:55 36.1 °F /  2.3 °C 32.6 °F /  0.3 °C 30.21 in /  1022.9 hPa Calm     87 % 0.00 in /  0 mm
03:01 36.1 °F /  2.3 °C 32.6 °F /  0.3 °C 30.21 in /  1022.9 hPa Calm     87 % 0.00 in /  0 mm
03:06 36.0 °F /  2.2 °C 32.5 °F /  0.3 °C 30.22 in /  1023.2 hPa Calm     87 % 0.00 in /  0 mm
03:11 36.0 °F /  2.2 °C 32.5 °F /  0.3 °C 30.22 in /  1023.2 hPa Calm     87 % 0.00 in /  0 mm
03:16 35.9 °F /  2.2 °C 32.4 °F /  0.2 °C 30.21 in /  1022.9 hPa Calm     87 % 0.00 in /  0 mm
03:21 35.9 °F /  2.2 °C 32.4 °F /  0.2 °C 30.22 in /  1023.2 hPa Calm     87 % 0.00 in /  0 mm
03:31 35.7 °F /  2.1 °C 32.2 °F /  0.1 °C 30.21 in /  1022.9 hPa Calm     87 % 0.00 in /  0 mm
03:36 35.7 °F /  2.1 °C 32.2 °F /  0.1 °C 30.21 in /  1022.9 hPa Calm     87 % 0.00 in /  0 mm
03:41 35.6 °F /  2 °C 32.1 °F /  0.1 °C 30.21 in /  1022.9 hPa Calm     87 % 0.00 in /  0 mm
03:46 35.6 °F /  2 °C 32.1 °F /  0.1 °C 30.21 in /  1022.9 hPa Calm     87 % 0.00 in /  0 mm
03:52 35.5 °F /  1.9 °C 32.0 °F /  0 °C 30.21 in /  1022.9 hPa Calm     87 % 0.00 in /  0 mm
03:57 35.5 °F /  1.9 °C 32.0 °F /  0 °C 30.21 in /  1022.9 hPa Calm     87 % 0.00 in /  0 mm
04:02 35.4 °F /  1.9 °C 32.2 °F /  0.1 °C 30.21 in /  1022.9 hPa Calm   1.2 mph /  1.9 km/h 88 % 0.00 in /  0 mm
04:07 35.4 °F /  1.9 °C 32.2 °F /  0.1 °C 30.21 in /  1022.9 hPa South 0.1 mph /  0.2 km/h 1.2 mph /  1.9 km/h 88 % 0.00 in /  0 mm
04:12 35.3 °F /  1.8 °C 32.1 °F /  0.1 °C 30.21 in /  1022.9 hPa Calm     88 % 0.00 in /  0 mm
04:23 35.3 °F /  1.8 °C 32.1 °F /  0.1 °C 30.21 in /  1022.9 hPa Calm     88 % 0.00 in /  0 mm
04:28 35.3 °F /  1.8 °C 32.4 °F /  0.2 °C 30.21 in /  1022.9 hPa Calm     89 % 0.00 in /  0 mm
04:33 35.3 °F /  1.8 °C 32.4 °F /  0.2 °C 30.22 in /  1023.2 hPa Calm   1.2 mph /  1.9 km/h 89 % 0.00 in /  0 mm
04:38 35.3 °F /  1.8 °C 32.4 °F /  0.2 °C 30.22 in /  1023.2 hPa Calm     89 % 0.00 in /  0 mm
04:48 35.4 °F /  1.9 °C 32.5 °F /  0.3 °C 30.21 in /  1022.9 hPa Calm     89 % 0.00 in /  0 mm
04:53 35.4 °F /  1.9 °C 32.5 °F /  0.3 °C 30.21 in /  1022.9 hPa Calm     89 % 0.00 in /  0 mm
04:58 35.4 °F /  1.9 °C 32.5 °F /  0.3 °C 30.21 in /  1022.9 hPa Calm     89 % 0.00 in /  0 mm
05:04 35.4 °F /  1.9 °C 32.5 °F /  0.3 °C 30.21 in /  1022.9 hPa Calm     89 % 0.00 in /  0 mm
05:09 35.4 °F /  1.9 °C 32.5 °F /  0.3 °C 30.21 in /  1022.9 hPa Calm     89 % 0.00 in /  0 mm
05:14 35.4 °F /  1.9 °C 32.5 °F /  0.3 °C 30.21 in /  1022.9 hPa Calm     89 % 0.00 in /  0 mm
05:19 35.3 °F /  1.8 °C 32.4 °F /  0.2 °C 30.21 in /  1022.9 hPa Calm     89 % 0.00 in /  0 mm
05:24 35.3 °F /  1.8 °C 32.4 °F /  0.2 °C 30.21 in /  1022.9 hPa Calm   1.2 mph /  1.9 km/h 89 % 0.00 in /  0 mm
05:29 35.2 °F /  1.8 °C 32.3 °F /  0.2 °C 30.22 in /  1023.2 hPa South 0.1 mph /  0.2 km/h 1.2 mph /  1.9 km/h 89 % 0.00 in /  0 mm
05:34 35.2 °F /  1.8 °C 32.3 °F /  0.2 °C 30.22 in /  1023.2 hPa Calm     89 % 0.00 in /  0 mm
05:39 35.2 °F /  1.8 °C 32.3 °F /  0.2 °C 30.22 in /  1023.2 hPa Calm     89 % 0.00 in /  0 mm
05:44 35.2 °F /  1.8 °C 32.3 °F /  0.2 °C 30.22 in /  1023.2 hPa Calm     89 % 0.00 in /  0 mm
05:50 35.1 °F /  1.7 °C 32.2 °F /  0.1 °C 30.23 in /  1023.6 hPa Calm     89 % 0.00 in /  0 mm
05:55 35.1 °F /  1.7 °C 32.2 °F /  0.1 °C 30.23 in /  1023.6 hPa Calm     89 % 0.00 in /  0 mm
06:00 35.1 °F /  1.7 °C 32.5 °F /  0.3 °C 30.23 in /  1023.6 hPa Calm     90 % 0.00 in /  0 mm
06:05 35.1 °F /  1.7 °C 32.5 °F /  0.3 °C 30.23 in /  1023.6 hPa Calm     90 % 0.00 in /  0 mm
06:10 35.1 °F /  1.7 °C 32.5 °F /  0.3 °C 30.23 in /  1023.6 hPa Calm     90 % 0.00 in /  0 mm
06:15 35.1 °F /  1.7 °C 32.5 °F /  0.3 °C 30.23 in /  1023.6 hPa Calm     90 % 0.00 in /  0 mm
06:20 35.1 °F /  1.7 °C 32.5 °F /  0.3 °C 30.23 in /  1023.6 hPa Calm     90 % 0.00 in /  0 mm
06:25 35.1 °F /  1.7 °C 32.5 °F /  0.3 °C 30.23 in /  1023.6 hPa Calm     90 % 0.00 in /  0 mm
06:30 35.1 °F /  1.7 °C 32.5 °F /  0.3 °C 30.24 in /  1023.9 hPa Calm     90 % 0.00 in /  0 mm
06:35 35.1 °F /  1.7 °C 32.5 °F /  0.3 °C 30.23 in /  1023.6 hPa Calm     90 % 0.00 in /  0 mm
06:40 35.1 °F /  1.7 °C 32.5 °F /  0.3 °C 30.23 in /  1023.6 hPa Calm     90 % 0.00 in /  0 mm
06:46 35.1 °F /  1.7 °C 32.5 °F /  0.3 °C 30.23 in /  1023.6 hPa Calm     90 % 0.00 in /  0 mm
06:50 35.1 °F /  1.7 °C 32.5 °F /  0.3 °C 30.23 in /  1023.6 hPa Calm     90 % 0.00 in /  0 mm
06:56 35.1 °F /  1.7 °C 32.5 °F /  0.3 °C 30.22 in /  1023.2 hPa Calm     90 % 0.00 in /  0 mm
07:01 35.1 °F /  1.7 °C 32.5 °F /  0.3 °C 30.23 in /  1023.6 hPa Calm     90 % 0.00 in /  0 mm
07:06 35.0 °F /  1.7 °C 32.4 °F /  0.2 °C 30.23 in /  1023.6 hPa Calm     90 % 0.00 in /  0 mm
07:12 35.0 °F /  1.7 °C 32.4 °F /  0.2 °C 30.22 in /  1023.2 hPa Calm     90 % 0.00 in /  0 mm
07:17 34.9 °F /  1.6 °C 32.3 °F /  0.2 °C 30.22 in /  1023.2 hPa Calm     90 % 0.00 in /  0 mm
07:22 34.9 °F /  1.6 °C 32.3 °F /  0.2 °C 30.22 in /  1023.2 hPa Calm     90 % 0.00 in /  0 mm
07:27 34.9 °F /  1.6 °C 32.3 °F /  0.2 °C 30.22 in /  1023.2 hPa Calm     90 % 0.00 in /  0 mm
07:32 35.0 °F /  1.7 °C 32.4 °F /  0.2 °C 30.22 in /  1023.2 hPa Calm     90 % 0.00 in /  0 mm
07:37 35.0 °F /  1.7 °C 32.4 °F /  0.2 °C 30.22 in /  1023.2 hPa Calm     90 % 0.00 in /  0 mm
07:43 35.0 °F /  1.7 °C 32.6 °F /  0.3 °C 30.23 in /  1023.6 hPa Calm   1.0 mph /  1.6 km/h 91 % 0.00 in /  0 mm
07:48 35.0 °F /  1.7 °C 32.6 °F /  0.3 °C 30.23 in /  1023.6 hPa Calm     91 % 0.00 in /  0 mm
07:53 35.1 °F /  1.7 °C 32.7 °F /  0.4 °C 30.23 in /  1023.6 hPa Calm     91 % 0.00 in /  0 mm
07:58 35.2 °F /  1.8 °C 32.8 °F /  0.4 °C 30.23 in /  1023.6 hPa Calm     91 % 0.00 in /  0 mm
07:59 35.2 °F /  1.8 °C 32.8 °F /  0.4 °C 30.23 in /  1023.6 hPa Calm     91 % 0.00 in /  0 mm
08:04 35.3 °F /  1.8 °C 32.9 °F /  0.5 °C 30.23 in /  1023.6 hPa Calm     91 % 0.00 in /  0 mm
08:10 35.5 °F /  1.9 °C 33.4 °F /  0.8 °C 30.23 in /  1023.6 hPa Calm     92 % 0.00 in /  0 mm
08:15 35.5 °F /  1.9 °C 33.4 °F /  0.8 °C 30.23 in /  1023.6 hPa Calm     92 % 0.00 in /  0 mm
08:20 35.6 °F /  2 °C 33.5 °F /  0.8 °C 30.23 in /  1023.6 hPa Calm     92 % 0.00 in /  0 mm
08:25 35.8 °F /  2.1 °C 33.7 °F /  0.9 °C 30.23 in /  1023.6 hPa Calm     92 % 0.00 in /  0 mm
08:30 36.0 °F /  2.2 °C 33.9 °F /  1.1 °C 30.23 in /  1023.6 hPa Calm     92 % 0.00 in /  0 mm
08:35 36.1 °F /  2.3 °C 34.0 °F /  1.1 °C 30.23 in /  1023.6 hPa Calm   1.2 mph /  1.9 km/h 92 % 0.00 in /  0 mm
08:40 36.3 °F /  2.4 °C 34.5 °F /  1.4 °C 30.23 in /  1023.6 hPa Calm   1.2 mph /  1.9 km/h 93 % 0.00 in /  0 mm
08:45 36.6 °F /  2.6 °C 34.8 °F /  1.6 °C 30.23 in /  1023.6 hPa Calm     93 % 0.00 in /  0 mm
08:50 36.9 °F /  2.7 °C 35.1 °F /  1.7 °C 30.23 in /  1023.6 hPa Calm     93 % 0.00 in /  0 mm
08:55 37.2 °F /  2.9 °C 35.4 °F /  1.9 °C 30.24 in /  1023.9 hPa Calm     93 % 0.00 in /  0 mm
09:00 37.7 °F /  3.2 °C 35.9 °F /  2.2 °C 30.24 in /  1023.9 hPa Calm     93 % 0.00 in /  0 mm
09:05 38.2 °F /  3.4 °C 36.4 °F /  2.4 °C 30.24 in /  1023.9 hPa Calm     93 % 0.00 in /  0 mm
09:10 38.6 °F /  3.7 °C 36.8 °F /  2.7 °C 30.24 in /  1023.9 hPa Calm     93 % 0.00 in /  0 mm
09:15 39.1 °F /  3.9 °C 37.0 °F /  2.8 °C 30.25 in /  1024.3 hPa Calm     92 % 0.00 in /  0 mm
09:20 39.6 °F /  4.2 °C 37.2 °F /  2.9 °C 30.25 in /  1024.3 hPa Calm     91 % 0.00 in /  0 mm
09:25 40.2 °F /  4.6 °C 37.5 °F /  3.1 °C 30.25 in /  1024.3 hPa North 0.1 mph /  0.2 km/h   90 % 0.00 in /  0 mm
09:31 40.8 °F /  4.9 °C 38.1 °F /  3.4 °C 30.24 in /  1023.9 hPa Calm   2.0 mph /  3.2 km/h 90 % 0.00 in /  0 mm
09:36 41.3 °F /  5.2 °C 38.3 °F /  3.5 °C 30.24 in /  1023.9 hPa North 2.0 mph /  3.2 km/h 3.0 mph /  4.8 km/h 89 % 0.00 in /  0 mm
09:41 41.8 °F /  5.4 °C 38.3 °F /  3.5 °C 30.24 in /  1023.9 hPa NE 1.0 mph /  1.6 km/h 4.0 mph /  6.4 km/h 87 % 0.00 in /  0 mm
09:46 42.3 °F /  5.7 °C 38.1 °F /  3.4 °C 30.24 in /  1023.9 hPa ENE 0.5 mph /  0.8 km/h 2.3 mph /  3.7 km/h 85 % 0.00 in /  0 mm
09:51 42.6 °F /  5.9 °C 38.4 °F /  3.6 °C 30.24 in /  1023.9 hPa Calm   2.0 mph /  3.2 km/h 85 % 0.00 in /  0 mm
09:56 42.9 °F /  6.1 °C 38.4 °F /  3.6 °C 30.25 in /  1024.3 hPa Calm   1.0 mph /  1.6 km/h 84 % 0.00 in /  0 mm
10:01 43.1 °F /  6.2 °C 38.3 °F /  3.5 °C 30.25 in /  1024.3 hPa Calm     83 % 0.00 in /  0 mm
10:06 43.3 °F /  6.3 °C 38.2 °F /  3.4 °C 30.25 in /  1024.3 hPa Calm     82 % 0.00 in /  0 mm
10:11 43.6 °F /  6.4 °C 38.5 °F /  3.6 °C 30.25 in /  1024.3 hPa Calm     82 % 0.00 in /  0 mm
10:16 43.8 °F /  6.6 °C 38.7 °F /  3.7 °C 30.25 in /  1024.3 hPa Calm     82 % 0.00 in /  0 mm
10:21 44.0 °F /  6.7 °C 38.9 °F /  3.8 °C 30.24 in /  1023.9 hPa ENE 0.1 mph /  0.2 km/h 1.2 mph /  1.9 km/h 82 % 0.00 in /  0 mm
10:23 44.0 °F /  6.7 °C 38.5 °F /  3.6 °C 30.24 in /  1023.9 hPa Calm     81 % 0.00 in /  0 mm
10:28 44.3 °F /  6.8 °C 38.8 °F /  3.8 °C 30.24 in /  1023.9 hPa ENE 0.1 mph /  0.2 km/h 1.0 mph /  1.6 km/h 81 % 0.00 in /  0 mm
10:33 44.5 °F /  6.9 °C 38.7 °F /  3.7 °C 30.23 in /  1023.6 hPa ENE 0.1 mph /  0.2 km/h 1.2 mph /  1.9 km/h 80 % 0.00 in /  0 mm
10:38 44.8 °F /  7.1 °C 39.0 °F /  3.9 °C 30.23 in /  1023.6 hPa ENE 0.9 mph /  1.4 km/h 2.3 mph /  3.7 km/h 80 % 0.00 in /  0 mm
10:43 45.1 °F /  7.3 °C 39.0 °F /  3.9 °C 30.22 in /  1023.2 hPa ENE 2.0 mph /  3.2 km/h 3.5 mph /  5.6 km/h 79 % 0.00 in /  0 mm
10:48 45.4 °F /  7.4 °C 38.9 °F /  3.8 °C 30.22 in /  1023.2 hPa ENE 1.6 mph /  2.6 km/h 3.5 mph /  5.6 km/h 78 % 0.00 in /  0 mm
10:53 45.6 °F /  7.6 °C 38.8 °F /  3.8 °C 30.22 in /  1023.2 hPa ENE 1.3 mph /  2.1 km/h 3.0 mph /  4.8 km/h 77 % 0.00 in /  0 mm
10:58 45.8 °F /  7.7 °C 39.0 °F /  3.9 °C 30.22 in /  1023.2 hPa ENE 1.6 mph /  2.6 km/h 3.0 mph /  4.8 km/h 77 % 0.00 in /  0 mm
11:03 46.0 °F /  7.8 °C 38.9 °F /  3.8 °C 30.22 in /  1023.2 hPa ENE 0.8 mph /  1.3 km/h 2.3 mph /  3.7 km/h 76 % 0.00 in /  0 mm
11:08 46.2 °F /  7.9 °C 39.1 °F /  3.9 °C 30.22 in /  1023.2 hPa ENE 1.0 mph /  1.6 km/h 2.3 mph /  3.7 km/h 76 % 0.00 in /  0 mm
11:13 46.4 °F /  8 °C 38.9 °F /  3.8 °C 30.22 in /  1023.2 hPa ENE 0.6 mph /  1 km/h 2.3 mph /  3.7 km/h 75 % 0.00 in /  0 mm
11:18 46.6 °F /  8.1 °C 39.1 °F /  3.9 °C 30.22 in /  1023.2 hPa ENE 0.9 mph /  1.4 km/h 2.3 mph /  3.7 km/h 75 % 0.00 in /  0 mm
11:23 46.7 °F /  8.2 °C 38.9 °F /  3.8 °C 30.22 in /  1023.2 hPa ENE 0.3 mph /  0.5 km/h 1.2 mph /  1.9 km/h 74 % 0.00 in /  0 mm
11:28 46.9 °F /  8.3 °C 38.7 °F /  3.7 °C 30.22 in /  1023.2 hPa ENE 2.2 mph /  3.5 km/h 4.0 mph /  6.4 km/h 73 % 0.00 in /  0 mm
11:34 46.9 °F /  8.3 °C 38.7 °F /  3.7 °C 30.22 in /  1023.2 hPa ENE 1.4 mph /  2.3 km/h 3.5 mph /  5.6 km/h 73 % 0.00 in /  0 mm
11:39 47.0 °F /  8.3 °C 38.8 °F /  3.8 °C 30.21 in /  1022.9 hPa ENE 1.8 mph /  2.9 km/h 3.5 mph /  5.6 km/h 73 % 0.00 in /  0 mm
11:44 47.2 °F /  8.4 °C 39.0 °F /  3.9 °C 30.21 in /  1022.9 hPa ENE 2.3 mph /  3.7 km/h 3.5 mph /  5.6 km/h 73 % 0.00 in /  0 mm
11:49 47.4 °F /  8.6 °C 39.2 °F /  4 °C 30.21 in /  1022.9 hPa ENE 1.7 mph /  2.7 km/h 3.5 mph /  5.6 km/h 73 % 0.00 in /  0 mm
11:54 47.5 °F /  8.6 °C 38.9 °F /  3.8 °C 30.21 in /  1022.9 hPa ENE 1.4 mph /  2.3 km/h 4.0 mph /  6.4 km/h 72 % 0.00 in /  0 mm
11:59 47.4 °F /  8.6 °C 38.8 °F /  3.8 °C 30.21 in /  1022.9 hPa ENE 2.7 mph /  4.3 km/h 4.0 mph /  6.4 km/h 72 % 0.00 in /  0 mm
12:04 47.5 °F /  8.6 °C 39.3 °F /  4.1 °C 30.21 in /  1022.9 hPa NE 2.6 mph /  4.2 km/h 3.5 mph /  5.6 km/h 73 % 0.00 in /  0 mm
12:09 47.8 °F /  8.8 °C 39.6 °F /  4.2 °C 30.21 in /  1022.9 hPa ENE 2.0 mph /  3.2 km/h 3.5 mph /  5.6 km/h 73 % 0.00 in /  0 mm
12:14 48.0 °F /  8.9 °C 39.8 °F /  4.3 °C 30.21 in /  1022.9 hPa East 2.0 mph /  3.2 km/h 3.5 mph /  5.6 km/h 73 % 0.00 in /  0 mm
12:23 48.5 °F /  9.2 °C 39.5 °F /  4.2 °C 30.20 in /  1022.6 hPa ENE 2.9 mph /  4.7 km/h 3.5 mph /  5.6 km/h 71 % 0.00 in /  0 mm
12:28 48.5 °F /  9.2 °C 39.2 °F /  4 °C 30.20 in /  1022.6 hPa NE 3.1 mph /  5 km/h 4.6 mph /  7.4 km/h 70 % 0.00 in /  0 mm
12:33 48.7 °F /  9.3 °C 39.7 °F /  4.3 °C 30.20 in /  1022.6 hPa ENE 2.8 mph /  4.5 km/h 4.6 mph /  7.4 km/h 71 % 0.00 in /  0 mm
12:38 48.8 °F /  9.3 °C 39.8 °F /  4.3 °C 30.19 in /  1022.2 hPa ENE 2.3 mph /  3.7 km/h 3.5 mph /  5.6 km/h 71 % 0.00 in /  0 mm
12:43 48.9 °F /  9.4 °C 40.3 °F /  4.6 °C 30.19 in /  1022.2 hPa ENE 1.5 mph /  2.4 km/h 3.5 mph /  5.6 km/h 72 % 0.00 in /  0 mm
12:48 48.8 °F /  9.3 °C 39.4 °F /  4.1 °C 30.19 in /  1022.2 hPa ENE 2.2 mph /  3.5 km/h 3.5 mph /  5.6 km/h 70 % 0.00 in /  0 mm
12:53 48.8 °F /  9.3 °C 39.8 °F /  4.3 °C 30.19 in /  1022.2 hPa ENE 2.3 mph /  3.7 km/h 3.5 mph /  5.6 km/h 71 % 0.00 in /  0 mm
12:58 48.6 °F /  9.2 °C 40.0 °F /  4.4 °C 30.19 in /  1022.2 hPa ENE 0.7 mph /  1.1 km/h 2.3 mph /  3.7 km/h 72 % 0.00 in /  0 mm
13:03 48.7 °F /  9.3 °C 40.8 °F /  4.9 °C 30.19 in /  1022.2 hPa NE 1.0 mph /  1.6 km/h 2.3 mph /  3.7 km/h 74 % 0.00 in /  0 mm
13:08 48.7 °F /  9.3 °C 40.4 °F /  4.7 °C 30.19 in /  1022.2 hPa ENE 2.9 mph /  4.7 km/h 4.6 mph /  7.4 km/h 73 % 0.00 in /  0 mm
13:14 48.8 °F /  9.3 °C 40.5 °F /  4.7 °C 30.19 in /  1022.2 hPa ENE 1.9 mph /  3.1 km/h 3.5 mph /  5.6 km/h 73 % 0.00 in /  0 mm
13:19 48.7 °F /  9.3 °C 40.1 °F /  4.5 °C 30.18 in /  1021.9 hPa ENE 1.8 mph /  2.9 km/h 3.5 mph /  5.6 km/h 72 % 0.00 in /  0 mm
13:24 48.7 °F /  9.3 °C 40.1 °F /  4.5 °C 30.19 in /  1022.2 hPa ENE 2.1 mph /  3.4 km/h 3.5 mph /  5.6 km/h 72 % 0.00 in /  0 mm
13:29 48.7 °F /  9.3 °C 40.4 °F /  4.7 °C 30.19 in /  1022.2 hPa ENE 1.5 mph /  2.4 km/h 3.5 mph /  5.6 km/h 73 % 0.00 in /  0 mm
13:34 48.7 °F /  9.3 °C 40.8 °F /  4.9 °C 30.18 in /  1021.9 hPa ENE 2.0 mph /  3.2 km/h 3.5 mph /  5.6 km/h 74 % 0.00 in /  0 mm
13:39 48.6 °F /  9.2 °C 40.7 °F /  4.8 °C 30.19 in /  1022.2 hPa NE 1.9 mph /  3.1 km/h 3.5 mph /  5.6 km/h 74 % 0.00 in /  0 mm
13:44 48.6 °F /  9.2 °C 40.7 °F /  4.8 °C 30.19 in /  1022.2 hPa ENE 1.8 mph /  2.9 km/h 4.0 mph /  6.4 km/h 74 % 0.00 in /  0 mm
13:49 48.5 °F /  9.2 °C 40.6 °F /  4.8 °C 30.19 in /  1022.2 hPa ENE 0.3 mph /  0.5 km/h 2.3 mph /  3.7 km/h 74 % 0.00 in /  0 mm
13:54 48.5 °F /  9.2 °C 40.6 °F /  4.8 °C 30.18 in /  1021.9 hPa ENE 2.0 mph /  3.2 km/h 3.5 mph /  5.6 km/h 74 % 0.00 in /  0 mm
13:59 48.4 °F /  9.1 °C 40.5 °F /  4.7 °C 30.18 in /  1021.9 hPa ENE 1.5 mph /  2.4 km/h 3.5 mph /  5.6 km/h 74 % 0.00 in /  0 mm
14:04 48.3 °F /  9.1 °C 40.4 °F /  4.7 °C 30.18 in /  1021.9 hPa ENE 1.2 mph /  1.9 km/h 3.5 mph /  5.6 km/h 74 % 0.00 in /  0 mm
14:09 48.2 °F /  9 °C 40.6 °F /  4.8 °C 30.19 in /  1022.2 hPa North 0.5 mph /  0.8 km/h 2.3 mph /  3.7 km/h 75 % 0.00 in /  0 mm
14:14 48.2 °F /  9 °C 40.6 °F /  4.8 °C 30.19 in /  1022.2 hPa ENE 1.3 mph /  2.1 km/h 3.5 mph /  5.6 km/h 75 % 0.00 in /  0 mm
14:19 48.1 °F /  8.9 °C 40.5 °F /  4.7 °C 30.19 in /  1022.2 hPa Calm     75 % 0.00 in /  0 mm
14:24 48.0 °F /  8.9 °C 40.5 °F /  4.7 °C 30.19 in /  1022.2 hPa ENE 0.7 mph /  1.1 km/h 3.0 mph /  4.8 km/h 75 % 0.00 in /  0 mm
14:29 47.9 °F /  8.8 °C 40.7 °F /  4.8 °C 30.19 in /  1022.2 hPa ENE 0.3 mph /  0.5 km/h 1.2 mph /  1.9 km/h 76 % 0.00 in /  0 mm
14:34 47.9 °F /  8.8 °C 40.7 °F /  4.8 °C 30.20 in /  1022.6 hPa NNE 0.5 mph /  0.8 km/h   76 % 0.00 in /  0 mm
14:39 47.8 °F /  8.8 °C 40.6 °F /  4.8 °C 30.20 in /  1022.6 hPa NNE 0.2 mph /  0.3 km/h 1.2 mph /  1.9 km/h 76 % 0.00 in /  0 mm
14:44 47.8 °F /  8.8 °C 40.6 °F /  4.8 °C 30.20 in /  1022.6 hPa ENE 0.4 mph /  0.6 km/h 3.5 mph /  5.6 km/h 76 % 0.00 in /  0 mm
14:49 47.7 °F /  8.7 °C 40.8 °F /  4.9 °C 30.20 in /  1022.6 hPa NNE 0.3 mph /  0.5 km/h 2.3 mph /  3.7 km/h 77 % 0.00 in /  0 mm
14:54 47.6 °F /  8.7 °C 40.7 °F /  4.8 °C 30.20 in /  1022.6 hPa ENE 1.2 mph /  1.9 km/h 3.0 mph /  4.8 km/h 77 % 0.00 in /  0 mm
15:00 47.6 °F /  8.7 °C 40.7 °F /  4.8 °C 30.20 in /  1022.6 hPa Calm   3.5 mph /  5.6 km/h 77 % 0.00 in /  0 mm
15:06 47.5 °F /  8.6 °C 40.6 °F /  4.8 °C 30.20 in /  1022.6 hPa ENE 0.3 mph /  0.5 km/h 1.2 mph /  1.9 km/h 77 % 0.00 in /  0 mm
15:11 47.4 °F /  8.6 °C 40.9 °F /  4.9 °C 30.21 in /  1022.9 hPa ENE 0.7 mph /  1.1 km/h 1.2 mph /  1.9 km/h 78 % 0.00 in /  0 mm
15:16 47.4 °F /  8.6 °C 40.9 °F /  4.9 °C 30.20 in /  1022.6 hPa ENE 2.0 mph /  3.2 km/h 5.0 mph /  8 km/h 78 % 0.00 in /  0 mm
15:21 47.3 °F /  8.5 °C 40.8 °F /  4.9 °C 30.20 in /  1022.6 hPa ENE 1.0 mph /  1.6 km/h 3.0 mph /  4.8 km/h 78 % 0.00 in /  0 mm
15:26 47.2 °F /  8.4 °C 40.7 °F /  4.8 °C 30.21 in /  1022.9 hPa ENE 1.2 mph /  1.9 km/h 4.0 mph /  6.4 km/h 78 % 0.00 in /  0 mm
15:31 47.2 °F /  8.4 °C 40.7 °F /  4.8 °C 30.20 in /  1022.6 hPa ENE 2.0 mph /  3.2 km/h 3.0 mph /  4.8 km/h 78 % 0.00 in /  0 mm
15:36 47.2 °F /  8.4 °C 41.0 °F /  5 °C 30.20 in /  1022.6 hPa ENE 0.2 mph /  0.3 km/h 2.3 mph /  3.7 km/h 79 % 0.00 in /  0 mm
15:41 47.2 °F /  8.4 °C 41.7 °F /  5.4 °C 30.20 in /  1022.6 hPa ENE 1.8 mph /  2.9 km/h 3.5 mph /  5.6 km/h 81 % 0.00 in /  0 mm
15:46 47.1 °F /  8.4 °C 42.2 °F /  5.7 °C 30.20 in /  1022.6 hPa Calm   1.2 mph /  1.9 km/h 83 % 0.00 in /  0 mm
15:48 47.1 °F /  8.4 °C 42.2 °F /  5.7 °C 30.20 in /  1022.6 hPa Calm     83 % 0.00 in /  0 mm
15:53 47.0 °F /  8.3 °C 42.1 °F /  5.6 °C 30.20 in /  1022.6 hPa Calm     83 % 0.00 in /  0 mm
15:58 46.9 °F /  8.3 °C 42.0 °F /  5.6 °C 30.20 in /  1022.6 hPa Calm     83 % 0.00 in /  0 mm
16:08 46.7 °F /  8.2 °C 42.1 °F /  5.6 °C 30.21 in /  1022.9 hPa Calm     84 % 0.00 in /  0 mm
16:13 46.6 °F /  8.1 °C 42.0 °F /  5.6 °C 30.20 in /  1022.6 hPa Calm     84 % 0.00 in /  0 mm
16:18 46.5 °F /  8.1 °C 41.9 °F /  5.5 °C 30.21 in /  1022.9 hPa Calm     84 % 0.00 in /  0 mm
16:23 46.4 °F /  8 °C 41.8 °F /  5.4 °C 30.21 in /  1022.9 hPa Calm     84 % 0.00 in /  0 mm
16:28 46.4 °F /  8 °C 41.8 °F /  5.4 °C 30.21 in /  1022.9 hPa Calm     84 % 0.00 in /  0 mm
16:33 46.3 °F /  7.9 °C 41.7 °F /  5.4 °C 30.21 in /  1022.9 hPa Calm     84 % 0.00 in /  0 mm
16:39 46.2 °F /  7.9 °C 41.6 °F /  5.3 °C 30.22 in /  1023.2 hPa Calm     84 % 0.00 in /  0 mm
16:44 46.1 °F /  7.8 °C 41.5 °F /  5.3 °C 30.22 in /  1023.2 hPa Calm     84 % 0.00 in /  0 mm
16:49 46.1 °F /  7.8 °C 41.5 °F /  5.3 °C 30.22 in /  1023.2 hPa Calm     84 % 0.00 in /  0 mm
16:54 46.0 °F /  7.8 °C 41.7 °F /  5.4 °C 30.22 in /  1023.2 hPa Calm     85 % 0.00 in /  0 mm
16:59 45.9 °F /  7.7 °C 41.6 °F /  5.3 °C 30.22 in /  1023.2 hPa Calm     85 % 0.00 in /  0 mm
17:04 45.9 °F /  7.7 °C 41.6 °F /  5.3 °C 30.22 in /  1023.2 hPa Calm     85 % 0.00 in /  0 mm
17:09 45.8 °F /  7.7 °C 41.9 °F /  5.5 °C 30.22 in /  1023.2 hPa Calm     86 % 0.00 in /  0 mm
17:14 45.7 °F /  7.6 °C 41.8 °F /  5.4 °C 30.22 in /  1023.2 hPa Calm     86 % 0.00 in /  0 mm
17:19 45.7 °F /  7.6 °C 41.8 °F /  5.4 °C 30.22 in /  1023.2 hPa Calm     86 % 0.00 in /  0 mm
17:24 45.6 °F /  7.6 °C 41.7 °F /  5.4 °C 30.22 in /  1023.2 hPa Calm     86 % 0.00 in /  0 mm
17:29 45.5 °F /  7.5 °C 41.6 °F /  5.3 °C 30.22 in /  1023.2 hPa Calm     86 % 0.00 in /  0 mm
17:34 45.3 °F /  7.4 °C 41.4 °F /  5.2 °C 30.22 in /  1023.2 hPa Calm     86 % 0.00 in /  0 mm
17:39 45.1 °F /  7.3 °C 41.2 °F /  5.1 °C 30.22 in /  1023.2 hPa Calm     86 % 0.00 in /  0 mm
17:44 44.9 °F /  7.2 °C 41.3 °F /  5.2 °C 30.22 in /  1023.2 hPa Calm     87 % 0.00 in /  0 mm
17:49 44.7 °F /  7.1 °C 41.1 °F /  5.1 °C 30.23 in /  1023.6 hPa Calm     87 % 0.00 in /  0 mm
17:54 44.6 °F /  7 °C 41.0 °F /  5 °C 30.23 in /  1023.6 hPa Calm     87 % 0.00 in /  0 mm
17:59 44.5 °F /  6.9 °C 40.9 °F /  4.9 °C 30.23 in /  1023.6 hPa Calm     87 % 0.00 in /  0 mm
18:04 44.3 °F /  6.8 °C 40.7 °F /  4.8 °C 30.23 in /  1023.6 hPa Calm     87 % 0.00 in /  0 mm
18:09 44.3 °F /  6.8 °C 40.7 °F /  4.8 °C 30.24 in /  1023.9 hPa Calm     87 % 0.00 in /  0 mm
18:14 44.2 °F /  6.8 °C 40.6 °F /  4.8 °C 30.24 in /  1023.9 hPa Calm     87 % 0.00 in /  0 mm
18:20 44.1 °F /  6.7 °C 40.8 °F /  4.9 °C 30.24 in /  1023.9 hPa Calm     88 % 0.00 in /  0 mm
18:25 44.0 °F /  6.7 °C 40.7 °F /  4.8 °C 30.24 in /  1023.9 hPa Calm     88 % 0.00 in /  0 mm
18:30 44.0 °F /  6.7 °C 40.7 °F /  4.8 °C 30.24 in /  1023.9 hPa Calm     88 % 0.00 in /  0 mm
18:35 43.9 °F /  6.6 °C 40.6 °F /  4.8 °C 30.24 in /  1023.9 hPa Calm     88 % 0.00 in /  0 mm
18:40 43.9 °F /  6.6 °C 40.6 °F /  4.8 °C 30.24 in /  1023.9 hPa Calm     88 % 0.00 in /  0 mm
18:45 43.9 °F /  6.6 °C 40.9 °F /  4.9 °C 30.24 in /  1023.9 hPa Calm     89 % 0.00 in /  0 mm
18:50 43.8 °F /  6.6 °C 40.8 °F /  4.9 °C 30.24 in /  1023.9 hPa Calm     89 % 0.00 in /  0 mm
18:55 43.8 °F /  6.6 °C 40.8 °F /  4.9 °C 30.24 in /  1023.9 hPa Calm     89 % 0.00 in /  0 mm
19:00 43.7 °F /  6.5 °C 40.7 °F /  4.8 °C 30.24 in /  1023.9 hPa Calm     89 % 0.00 in /  0 mm
19:05 43.7 °F /  6.5 °C 40.7 °F /  4.8 °C 30.24 in /  1023.9 hPa Calm     89 % 0.00 in /  0 mm
19:10 43.7 °F /  6.5 °C 40.7 °F /  4.8 °C 30.25 in /  1024.3 hPa Calm     89 % 0.00 in /  0 mm
19:15 43.7 °F /  6.5 °C 41.0 °F /  5 °C 30.25 in /  1024.3 hPa Calm     90 % 0.00 in /  0 mm
19:20 43.7 °F /  6.5 °C 41.0 °F /  5 °C 30.25 in /  1024.3 hPa Calm     90 % 0.00 in /  0 mm
19:25 43.7 °F /  6.5 °C 41.0 °F /  5 °C 30.25 in /  1024.3 hPa Calm     90 % 0.00 in /  0 mm
19:30 43.7 °F /  6.5 °C 41.2 °F /  5.1 °C 30.25 in /  1024.3 hPa Calm     91 % 0.00 in /  0 mm
19:35 43.7 °F /  6.5 °C 41.2 °F /  5.1 °C 30.25 in /  1024.3 hPa Calm     91 % 0.00 in /  0 mm
19:40 43.7 °F /  6.5 °C 41.2 °F /  5.1 °C 30.25 in /  1024.3 hPa Calm     91 % 0.00 in /  0 mm
19:45 43.6 °F /  6.4 °C 40.9 °F /  4.9 °C 30.26 in /  1024.6 hPa Calm     90 % 0.00 in /  0 mm
19:50 43.6 °F /  6.4 °C 40.9 °F /  4.9 °C 30.25 in /  1024.3 hPa Calm     90 % 0.00 in /  0 mm
19:55 43.5 °F /  6.4 °C 40.8 °F /  4.9 °C 30.26 in /  1024.6 hPa Calm     90 % 0.00 in /  0 mm
20:00 43.5 °F /  6.4 °C 40.8 °F /  4.9 °C 30.26 in /  1024.6 hPa Calm     90 % 0.00 in /  0 mm
20:05 43.4 °F /  6.3 °C 40.7 °F /  4.8 °C 30.25 in /  1024.3 hPa Calm     90 % 0.00 in /  0 mm
20:10 43.4 °F /  6.3 °C 40.7 °F /  4.8 °C 30.26 in /  1024.6 hPa Calm     90 % 0.00 in /  0 mm
20:15 43.4 °F /  6.3 °C 40.7 °F /  4.8 °C 30.26 in /  1024.6 hPa Calm     90 % 0.00 in /  0 mm
20:16 43.4 °F /  6.3 °C 40.7 °F /  4.8 °C 30.25 in /  1024.3 hPa Calm     90 % 0.00 in /  0 mm
20:21 43.3 °F /  6.3 °C 40.6 °F /  4.8 °C 30.26 in /  1024.6 hPa Calm     90 % 0.00 in /  0 mm
20:26 43.3 °F /  6.3 °C 40.6 °F /  4.8 °C 30.26 in /  1024.6 hPa Calm     90 % 0.00 in /  0 mm
20:31 43.3 °F /  6.3 °C 40.6 °F /  4.8 °C 30.26 in /  1024.6 hPa Calm     90 % 0.00 in /  0 mm
20:37 43.2 °F /  6.2 °C 40.5 °F /  4.7 °C 30.26 in /  1024.6 hPa Calm     90 % 0.00 in /  0 mm
20:42 43.1 °F /  6.2 °C 40.4 °F /  4.7 °C 30.26 in /  1024.6 hPa Calm     90 % 0.00 in /  0 mm
20:47 43.1 °F /  6.2 °C 40.4 °F /  4.7 °C 30.27 in /  1024.9 hPa Calm     90 % 0.00 in /  0 mm
20:52 43.0 °F /  6.1 °C 40.3 °F /  4.6 °C 30.27 in /  1024.9 hPa Calm     90 % 0.00 in /  0 mm
20:57 42.9 °F /  6.1 °C 40.2 °F /  4.6 °C 30.27 in /  1024.9 hPa Calm     90 % 0.00 in /  0 mm
21:02 42.8 °F /  6 °C 40.1 °F /  4.5 °C 30.27 in /  1024.9 hPa Calm     90 % 0.00 in /  0 mm
21:07 42.7 °F /  5.9 °C 40.0 °F /  4.4 °C 30.27 in /  1024.9 hPa Calm     90 % 0.00 in /  0 mm
21:12 42.6 °F /  5.9 °C 39.9 °F /  4.4 °C 30.27 in /  1024.9 hPa Calm     90 % 0.00 in /  0 mm
21:17 42.5 °F /  5.8 °C 39.8 °F /  4.3 °C 30.28 in /  1025.3 hPa Calm     90 % 0.00 in /  0 mm
21:22 42.5 °F /  5.8 °C 39.8 °F /  4.3 °C 30.28 in /  1025.3 hPa Calm     90 % 0.00 in /  0 mm
21:27 42.4 °F /  5.8 °C 39.7 °F /  4.3 °C 30.28 in /  1025.3 hPa Calm     90 % 0.00 in /  0 mm
21:32 42.3 °F /  5.7 °C 39.6 °F /  4.2 °C 30.28 in /  1025.3 hPa Calm     90 % 0.00 in /  0 mm
21:37 42.2 °F /  5.7 °C 39.5 °F /  4.2 °C 30.28 in /  1025.3 hPa Calm     90 % 0.00 in /  0 mm
21:42 42.1 °F /  5.6 °C 39.4 °F /  4.1 °C 30.28 in /  1025.3 hPa Calm     90 % 0.00 in /  0 mm
21:47 42.0 °F /  5.6 °C 39.3 °F /  4.1 °C 30.28 in /  1025.3 hPa Calm     90 % 0.00 in /  0 mm
21:52 41.9 °F /  5.5 °C 39.2 °F /  4 °C 30.28 in /  1025.3 hPa Calm     90 % 0.00 in /  0 mm
21:57 41.8 °F /  5.4 °C 39.1 °F /  3.9 °C 30.28 in /  1025.3 hPa Calm     90 % 0.00 in /  0 mm
22:02 41.7 °F /  5.4 °C 39.0 °F /  3.9 °C 30.29 in /  1025.6 hPa Calm     90 % 0.00 in /  0 mm
22:07 41.6 °F /  5.3 °C 38.9 °F /  3.8 °C 30.28 in /  1025.3 hPa Calm     90 % 0.00 in /  0 mm
22:13 41.5 °F /  5.3 °C 38.8 °F /  3.8 °C 30.29 in /  1025.6 hPa Calm     90 % 0.00 in /  0 mm
22:18 41.4 °F /  5.2 °C 38.7 °F /  3.7 °C 30.06 in /  1017.8 hPa Calm     90 % 0.00 in /  0 mm
22:19 41.4 °F /  5.2 °C 38.7 °F /  3.7 °C 30.29 in /  1025.6 hPa Calm     90 % 0.00 in /  0 mm
22:21 41.3 °F /  5.2 °C 38.9 °F /  3.8 °C 30.29 in /  1025.6 hPa Calm     91 % 0.00 in /  0 mm
22:23 41.3 °F /  5.2 °C 38.9 °F /  3.8 °C 30.06 in /  1017.8 hPa Calm     91 % 0.00 in /  0 mm
22:26 41.2 °F /  5.1 °C 38.8 °F /  3.8 °C 30.29 in /  1025.6 hPa Calm     91 % 0.00 in /  0 mm
22:27 41.2 °F /  5.1 °C 38.8 °F /  3.8 °C 30.07 in /  1018.2 hPa Calm     91 % 0.00 in /  0 mm
22:31 41.1 °F /  5.1 °C 38.4 °F /  3.6 °C 30.29 in /  1025.6 hPa Calm     90 % 0.00 in /  0 mm
22:36 41.0 °F /  5 °C 38.3 °F /  3.5 °C 30.29 in /  1025.6 hPa Calm     90 % 0.00 in /  0 mm
22:37 40.9 °F /  4.9 °C 38.2 °F /  3.4 °C 30.30 in /  1026 hPa Calm     90 % 0.00 in /  0 mm
22:42 40.8 °F /  4.9 °C 38.1 °F /  3.4 °C 30.30 in /  1026 hPa Calm     90 % 0.00 in /  0 mm
22:43 40.8 °F /  4.9 °C 38.1 °F /  3.4 °C 30.30 in /  1026 hPa Calm     90 % 0.00 in /  0 mm
22:48 40.6 °F /  4.8 °C 37.9 °F /  3.3 °C 30.29 in /  1025.6 hPa Calm     90 % 0.00 in /  0 mm
22:53 40.5 °F /  4.7 °C 37.8 °F /  3.2 °C 30.30 in /  1026 hPa Calm     90 % 0.00 in /  0 mm
22:58 40.3 °F /  4.6 °C 37.6 °F /  3.1 °C 30.29 in /  1025.6 hPa Calm     90 % 0.00 in /  0 mm
23:03 40.1 °F /  4.5 °C 37.4 °F /  3 °C 30.29 in /  1025.6 hPa Calm     90 % 0.00 in /  0 mm
23:08 39.9 °F /  4.4 °C 37.2 °F /  2.9 °C 30.30 in /  1026 hPa Calm     90 % 0.00 in /  0 mm
23:13 39.7 °F /  4.3 °C 37.0 °F /  2.8 °C 30.30 in /  1026 hPa Calm     90 % 0.00 in /  0 mm
23:24 39.5 °F /  4.2 °C 37.1 °F /  2.8 °C 30.30 in /  1026 hPa Calm     91 % 0.00 in /  0 mm
23:29 39.3 °F /  4.1 °C 36.9 °F /  2.7 °C 30.30 in /  1026 hPa Calm   1.0 mph /  1.6 km/h 91 % 0.00 in /  0 mm
23:34 39.1 °F /  3.9 °C 36.7 °F /  2.6 °C 30.31 in /  1026.3 hPa ENE 0.2 mph /  0.3 km/h 1.2 mph /  1.9 km/h 91 % 0.00 in /  0 mm
23:39 38.9 °F /  3.8 °C 36.5 °F /  2.5 °C 30.31 in /  1026.3 hPa Calm     91 % 0.00 in /  0 mm
23:44 38.8 °F /  3.8 °C 36.4 °F /  2.4 °C 30.31 in /  1026.3 hPa Calm     91 % 0.00 in /  0 mm
23:49 38.7 °F /  3.7 °C 36.3 °F /  2.4 °C 30.31 in /  1026.3 hPa Calm     91 % 0.00 in /  0 mm
23:54 38.5 °F /  3.6 °C 36.1 °F /  2.3 °C 30.31 in /  1026.3 hPa Calm     91 % 0.00 in /  0 mm
23:59 38.4 °F /  3.6 °C 36.0 °F /  2.2 °C 30.31 in /  1026.3 hPa Calm     91 % 0.00 in /  0 mm
Crab Meadow Weather
Compliments of Weather Underground - 3 mb

Script developed by  Jim McMurry - jmcmurry@mwt.net Adapted for the template by  Wim van der Kuil - Leuven-Template.eu

Wind Chill: Everyone has noticed that in winter it seems colder when the wind is blowing. Mothers recognize this and tell their children to wear more clothes. The question the children ask is how much more clothes. Mothers answer very precisely because Mothers know everything. For the rest of us, wind chill calculations are the basis for determining the effect of wind on body heat loss. The wind chill equivalent temperature equation is: Wind chill temperature = 35.74 + 0.6215T - 35.75V (**0.16) + 0.4275TV(**0.16) where T is the air temperature in Fahrenheit and V is the wind speed in MPH.